Time;durP1;ratioP1;P1;durP2;ratioP2;P2;SDS_P1;SDS_P2;PMS_P1;PMS_P2;Temp;Humidity;BMP_temperature;BMP_pressure;BME280_temperature;BME280_humidity;BME280_pressure;Samples;Min_cycle;Max_cycle;Signal;HPM_P1;HPM_P2
2022/01/03 00:00:22;;;;;;;29.15;5.72;;;;;;;9.20;100.00;101029.22;5073118;28;20025;-73
2022/01/03 00:02:49;;;;;;;29.20;6.15;;;;;;;9.15;100.00;101030.94;5072613;28;20444;-71
2022/01/03 00:05:14;;;;;;;30.27;6.32;;;;;;;9.05;100.00;101024.63;5072521;28;20082;-73
2022/01/03 00:07:42;;;;;;;31.48;6.13;;;;;;;9.10;100.00;101030.88;5072771;28;20025;-74
2022/01/03 00:10:10;;;;;;;27.23;5.32;;;;;;;9.19;100.00;101028.34;5072489;28;20020;-74
2022/01/03 00:12:37;;;;;;;30.02;5.78;;;;;;;9.20;100.00;101032.75;5072509;28;20025;-73
2022/01/03 00:15:04;;;;;;;27.42;5.82;;;;;;;9.20;100.00;101034.50;5072605;28;20032;-73
2022/01/03 00:17:29;;;;;;;28.98;5.97;;;;;;;9.23;100.00;101039.81;5072355;28;20020;-75
2022/01/03 00:19:55;;;;;;;30.92;7.20;;;;;;;9.23;100.00;101037.16;5072371;28;20033;-72
2022/01/03 00:22:22;;;;;;;32.63;6.43;;;;;;;9.20;100.00;101047.69;5072721;28;20475;-75
2022/01/03 00:25:04;;;;;;;32.47;7.13;;;;;;;9.27;100.00;101052.19;5072427;28;20067;-73
2022/01/03 00:28:02;;;;;;;30.40;6.65;;;;;;;9.23;100.00;101047.72;5069630;28;20032;-76
2022/01/03 00:30:29;;;;;;;27.90;6.68;;;;;;;9.28;100.00;101050.44;5069759;28;20021;-73
2022/01/03 00:32:57;;;;;;;26.15;6.50;;;;;;;9.25;100.00;101057.44;5072104;28;20048;-72
2022/01/03 00:35:23;;;;;;;31.15;7.00;;;;;;;9.25;100.00;101051.28;5072248;28;20082;-75
2022/01/03 00:37:49;;;;;;;33.47;7.30;;;;;;;9.25;100.00;101053.91;5072511;28;20021;-75
2022/01/03 00:40:18;;;;;;;29.88;7.07;;;;;;;9.31;100.00;101051.34;5072300;28;20020;-75
2022/01/03 00:42:43;;;;;;;29.40;6.45;;;;;;;9.40;100.00;101045.31;5071271;28;20094;-76
2022/01/03 00:45:09;;;;;;;28.83;6.43;;;;;;;9.46;100.00;101036.59;5072459;28;20037;-73
2022/01/03 00:47:35;;;;;;;30.65;6.82;;;;;;;9.42;100.00;101039.19;5072209;28;20441;-69
2022/01/03 00:50:08;;;;;;;29.55;6.90;;;;;;;9.47;100.00;101035.72;5072449;28;20029;-70
2022/01/03 00:52:33;;;;;;;28.95;7.03;;;;;;;9.48;100.00;101037.47;5071385;28;20036;-70
2022/01/03 00:54:58;;;;;;;27.38;6.97;;;;;;;9.44;100.00;101049.75;5072178;28;20021;-70
2022/01/03 00:57:31;;;;;;;26.02;6.95;;;;;;;9.35;100.00;101047.00;5072167;28;20107;-71
2022/01/03 01:00:04;;;;;;;27.88;7.35;;;;;;;9.39;100.00;101064.63;5068965;28;20032;-69
2022/01/03 01:02:38;;;;;;;28.27;7.30;;;;;;;9.54;100.00;101042.84;5071088;28;20064;-69
2022/01/03 01:05:05;;;;;;;28.67;7.05;;;;;;;9.52;100.00;101058.66;5076006;28;20023;-69
2022/01/03 01:07:32;;;;;;;29.08;7.90;;;;;;;9.52;100.00;101044.56;5075860;28;20502;-69
2022/01/03 01:10:00;;;;;;;30.25;7.43;;;;;;;9.49;100.00;101045.41;5076077;28;20112;-69
2022/01/03 01:12:27;;;;;;;29.92;8.00;;;;;;;9.46;100.00;101041.88;5075841;28;20024;-69
2022/01/03 01:14:52;;;;;;;28.23;7.18;;;;;;;9.41;100.00;101039.19;5071741;28;20032;-69
2022/01/03 01:17:17;;;;;;;28.80;7.60;;;;;;;9.35;100.00;101053.16;5076080;28;20028;-70
2022/01/03 01:19:43;;;;;;;31.38;7.97;;;;;;;9.38;100.00;101036.50;5074256;28;20036;-69
2022/01/03 01:22:09;;;;;;;28.73;7.55;;;;;;;9.43;100.00;101046.22;5075618;28;20032;-69
2022/01/03 01:24:46;;;;;;;30.35;7.82;;;;;;;9.41;100.00;101055.00;5075686;28;20059;-69
2022/01/03 01:29:55;;;;;;;27.77;7.78;;;;;;;9.39;100.00;101052.34;5072323;28;20490;-70
2022/01/03 01:32:21;;;;;;;27.45;7.43;;;;;;;9.43;100.00;101062.06;5075181;28;20048;-76
2022/01/03 01:34:49;;;;;;;31.58;8.48;;;;;;;9.35;100.00;101070.72;5075552;28;20536;-73
2022/01/03 01:37:18;;;;;;;30.92;8.05;;;;;;;9.32;100.00;101084.78;5075218;28;20028;-76
2022/01/03 01:39:47;;;;;;;32.22;8.88;;;;;;;9.32;100.00;101079.53;5075214;28;20449;-76
2022/01/03 01:42:15;;;;;;;32.65;7.97;;;;;;;9.33;100.00;101090.94;5075411;28;20032;-74
2022/01/03 01:44:47;;;;;;;30.83;7.40;;;;;;;9.33;100.00;101097.09;5075316;28;20020;-75
2022/01/03 01:47:14;;;;;;;30.95;7.70;;;;;;;9.29;100.00;101078.56;5075195;28;20521;-74
2022/01/03 01:49:47;;;;;;;32.05;7.88;;;;;;;9.24;100.00;101083.78;5075371;28;20100;-75
2022/01/03 01:52:18;;;;;;;31.35;7.28;;;;;;;9.20;100.00;101089.88;5075360;28;20016;-72
2022/01/03 01:54:53;;;;;;;30.67;7.35;;;;;;;9.15;100.00;101078.41;5075221;28;20746;-73
2022/01/03 01:57:20;;;;;;;29.67;7.13;;;;;;;9.13;100.00;101088.03;5074830;28;20033;-76
2022/01/03 02:00:04;;;;;;;31.73;8.00;;;;;;;9.05;100.00;101075.63;5075212;28;20024;-75
2022/01/03 02:02:35;;;;;;;26.38;6.30;;;;;;;9.04;100.00;101083.50;5072185;28;20052;-76
2022/01/03 02:05:18;;;;;;;33.35;6.72;;;;;;;8.98;100.00;101078.16;5075023;28;20063;-76
2022/01/03 02:08:13;;;;;;;28.95;6.57;;;;;;;8.93;100.00;101079.81;5075140;28;20036;-75
2022/01/03 02:10:43;;;;;;;29.85;6.60;;;;;;;8.76;100.00;101082.22;5070916;28;20040;-76
2022/01/03 02:13:11;;;;;;;28.73;6.55;;;;;;;8.68;100.00;101090.91;5074762;28;20024;-75
2022/01/03 02:15:37;;;;;;;30.38;6.35;;;;;;;8.66;100.00;101083.81;5073829;28;20064;-73
2022/01/03 02:18:04;;;;;;;29.13;6.43;;;;;;;8.64;100.00;101081.16;5073680;28;20020;-71
2022/01/03 02:20:31;;;;;;;32.53;6.72;;;;;;;8.65;100.00;101088.22;5074707;28;20021;-71
2022/01/03 02:22:57;;;;;;;30.95;6.57;;;;;;;8.67;100.00;101082.97;5074463;28;20052;-74
2022/01/03 02:25:25;;;;;;;31.88;6.93;;;;;;;8.68;100.00;101104.06;5074437;28;20432;-73
2022/01/03 02:27:51;;;;;;;33.80;7.38;;;;;;;8.63;100.00;101089.91;5074407;28;20017;-74
2022/01/03 02:30:21;;;;;;;28.25;6.00;;;;;;;8.59;100.00;101089.84;5074480;28;20087;-71
2022/01/03 02:32:47;;;;;;;30.02;6.30;;;;;;;8.56;100.00;101080.13;5072860;28;20139;-71
2022/01/03 02:35:13;;;;;;;31.40;6.63;;;;;;;8.47;100.00;101085.25;5074720;28;20028;-70
2022/01/03 02:37:39;;;;;;;32.28;6.40;;;;;;;8.40;100.00;101073.69;5074220;28;20170;-69
2022/01/03 02:40:07;;;;;;;29.27;6.03;;;;;;;8.45;100.00;101079.97;5074161;28;20032;-73
2022/01/03 02:42:33;;;;;;;29.80;6.30;;;;;;;8.54;100.00;101088.03;5074455;28;20424;-72
2022/01/03 02:45:06;;;;;;;30.67;6.72;;;;;;;8.61;100.00;101082.88;5074040;28;20025;-69
2022/01/03 02:47:31;;;;;;;31.55;6.80;;;;;;;8.71;100.00;101069.84;5074010;28;20032;-71
2022/01/03 02:49:57;;;;;;;29.25;5.70;;;;;;;8.71;100.00;101080.41;5074062;28;20367;-74
2022/01/03 02:52:22;;;;;;;30.33;6.10;;;;;;;8.73;100.00;101088.31;5073927;28;20052;-72
2022/01/03 02:54:49;;;;;;;31.10;5.97;;;;;;;8.77;100.00;101078.72;5073912;28;20029;-73
2022/01/03 02:57:15;;;;;;;27.98;5.97;;;;;;;8.68;100.00;101069.81;5074117;28;20430;-75
2022/01/03 02:59:40;;;;;;;31.58;6.80;;;;;;;8.71;100.00;101080.41;5073779;28;20111;-74
2022/01/03 03:02:06;;;;;;;28.73;5.78;;;;;;;8.71;100.00;101088.31;5073679;28;20032;-72
2022/01/03 03:04:47;;;;;;;29.70;6.30;;;;;;;8.65;100.00;101080.31;5072823;28;20040;-69
2022/01/03 03:07:20;;;;;;;31.83;6.90;;;;;;;8.72;100.00;101105.91;5073820;28;20043;-69
2022/01/03 03:09:45;;;;;;;34.50;7.00;;;;;;;8.65;100.00;101101.38;5073668;28;20470;-69
2022/01/03 03:12:11;;;;;;;31.05;7.00;;;;;;;8.62;100.00;101103.06;5073510;28;20029;-71
2022/01/03 03:14:38;;;;;;;29.45;6.28;;;;;;;8.66;100.00;101103.13;5073948;28;20411;-69
2022/01/03 03:17:04;;;;;;;32.53;6.47;;;;;;;8.70;100.00;101098.81;5073447;28;20064;-69
2022/01/03 03:19:29;;;;;;;32.63;6.53;;;;;;;8.66;100.00;101089.09;5073293;28;20064;-70
2022/01/03 03:21:54;;;;;;;31.98;6.30;;;;;;;8.60;100.00;101096.91;5073555;28;20119;-69
2022/01/03 03:24:20;;;;;;;32.10;6.35;;;;;;;8.62;100.00;101092.53;5073341;28;20035;-69
2022/01/03 03:26:45;;;;;;;32.20;6.63;;;;;;;8.62;100.00;101085.53;5073634;28;20027;-69
2022/01/03 03:29:10;;;;;;;33.47;6.10;;;;;;;8.66;100.00;101087.31;5073160;28;20071;-69
2022/01/03 03:31:36;;;;;;;31.42;6.55;;;;;;;8.70;100.00;101102.34;5072954;28;20064;-69
2022/01/03 03:34:01;;;;;;;29.27;5.68;;;;;;;8.80;100.00;101091.97;5073359;28;20035;-69
2022/01/03 03:36:27;;;;;;;29.25;5.93;;;;;;;8.79;100.00;101104.22;5072986;28;20383;-70
2022/01/03 03:38:52;;;;;;;31.52;5.93;;;;;;;8.88;100.00;101099.13;5068855;28;20039;-70
2022/01/03 03:41:18;;;;;;;31.98;6.03;;;;;;;8.89;100.00;101100.00;5073026;28;20078;-69
2022/01/03 03:43:43;;;;;;;31.73;6.03;;;;;;;8.87;100.00;101099.09;5072904;28;20511;-69
2022/01/03 03:46:08;;;;;;;30.08;6.45;;;;;;;8.91;100.00;101127.25;5073137;28;20040;-69
2022/01/03 03:48:34;;;;;;;31.30;6.13;;;;;;;8.91;100.00;101085.06;5073064;28;20376;-70
2022/01/03 03:51:00;;;;;;;29.63;5.72;;;;;;;8.87;100.00;101076.25;5072782;28;20027;-73
2022/01/03 03:53:26;;;;;;;31.42;6.05;;;;;;;8.77;100.00;101094.56;5072809;28;20360;-71
2022/01/03 03:55:51;;;;;;;33.08;6.18;;;;;;;8.70;100.00;101089.16;5073154;28;20028;-74
2022/01/03 03:58:17;;;;;;;30.55;6.25;;;;;;;8.67;100.00;101085.59;5072587;28;20032;-70
2022/01/03 04:00:43;;;;;;;30.08;6.10;;;;;;;8.58;100.00;101077.53;5072670;28;20065;-74
2022/01/03 04:03:08;;;;;;;33.13;6.75;;;;;;;8.63;100.00;101081.13;5072877;28;20032;-74
2022/01/03 04:05:33;;;;;;;32.03;6.40;;;;;;;8.65;100.00;101084.66;5072668;28;20062;-71
2022/01/03 04:08:00;;;;;;;32.50;6.85;;;;;;;8.62;100.00;101077.63;5072816;28;20021;-71
2022/01/03 04:10:25;;;;;;;35.35;6.13;;;;;;;8.71;100.00;101080.41;5072542;28;20031;-74
2022/01/03 04:12:50;;;;;;;34.83;6.80;;;;;;;8.75;100.00;101086.59;5072343;28;20036;-75
2022/01/03 04:15:16;;;;;;;32.80;6.55;;;;;;;8.79;100.00;101077.88;5072711;28;20029;-74
2022/01/03 04:17:41;;;;;;;32.35;6.57;;;;;;;8.83;100.00;101077.06;5072682;28;20032;-74
2022/01/03 04:20:09;;;;;;;32.55;6.40;;;;;;;8.81;100.00;101075.25;5072519;28;20021;-73
2022/01/03 04:22:34;;;;;;;32.40;6.15;;;;;;;8.80;100.00;101060.31;5072597;28;20032;-74
2022/01/03 04:25:00;;;;;;;31.42;6.93;;;;;;;8.90;100.00;101065.75;5072421;28;20025;-73
2022/01/03 04:27:25;;;;;;;29.60;6.13;;;;;;;8.88;100.00;101064.84;5072661;27;20029;-74
2022/01/03 04:29:51;;;;;;;33.42;6.45;;;;;;;8.87;100.00;101052.53;5072582;28;20035;-71
2022/01/03 04:32:17;;;;;;;31.50;6.00;;;;;;;8.80;100.00;101058.56;5072163;28;20491;-74
2022/01/03 04:34:42;;;;;;;31.63;6.60;;;;;;;8.88;100.00;101056.03;5072485;28;20029;-72
2022/01/03 04:37:08;;;;;;;31.92;6.47;;;;;;;8.83;100.00;101058.59;5072673;28;20375;-70
2022/01/03 04:39:34;;;;;;;32.33;6.93;;;;;;;8.91;100.00;101061.34;5076288;28;20467;-74
2022/01/03 04:41:59;;;;;;;33.13;6.55;;;;;;;8.91;100.00;101063.97;5076358;28;20035;-73
2022/01/03 04:44:24;;;;;;;35.95;6.60;;;;;;;8.94;100.00;101066.69;5076772;28;20052;-75
2022/01/03 04:46:52;;;;;;;31.20;6.35;;;;;;;8.96;100.00;101057.03;5076321;28;20024;-74
2022/01/03 04:49:17;;;;;;;31.58;6.20;;;;;;;8.98;100.00;101054.41;5076494;28;20135;-74
2022/01/03 04:51:42;;;;;;;31.83;6.22;;;;;;;9.01;100.00;101051.81;5076544;28;20515;-71
2022/01/03 04:54:08;;;;;;;32.90;6.05;;;;;;;9.01;100.00;101054.47;5076282;28;20028;-69
2022/01/03 04:56:33;;;;;;;30.60;6.28;;;;;;;9.10;100.00;101057.25;5076173;28;20064;-70
2022/01/03 04:58:59;;;;;;;30.30;6.40;;;;;;;9.11;100.00;101052.84;5076048;28;20039;-70
2022/01/03 05:01:25;;;;;;;31.80;5.88;;;;;;;9.05;100.00;101057.16;5076244;28;20345;-69
2022/01/03 05:03:52;;;;;;;30.40;5.75;;;;;;;9.07;100.00;101055.44;5076197;28;20027;-71
2022/01/03 05:06:18;;;;;;;30.75;5.63;;;;;;;9.14;100.00;101058.16;5075901;28;20029;-69
2022/01/03 05:08:44;;;;;;;33.65;6.38;;;;;;;9.15;100.00;101054.66;5075874;28;20043;-69
2022/01/03 05:11:09;;;;;;;31.45;6.20;;;;;;;9.12;100.00;101054.63;5076033;28;20021;-69
2022/01/03 05:13:34;;;;;;;33.17;6.22;;;;;;;9.03;100.00;101060.66;5075677;28;20029;-69
2022/01/03 05:16:01;;;;;;;33.80;6.13;;;;;;;9.06;100.00;101056.31;5075561;28;20387;-69
2022/01/03 05:18:26;;;;;;;34.85;6.15;;;;;;;9.05;100.00;101037.81;5076081;28;20020;-70
2022/01/03 05:20:52;;;;;;;35.45;6.55;;;;;;;8.95;100.00;101031.53;5075802;28;20032;-69
2022/01/03 05:23:17;;;;;;;31.48;6.13;;;;;;;8.93;100.00;101032.38;5075694;28;20099;-69
2022/01/03 05:25:43;;;;;;;31.15;6.20;;;;;;;8.94;100.00;101028.88;5075818;28;20031;-69
2022/01/03 05:28:08;;;;;;;29.70;5.80;;;;;;;8.92;100.00;101035.88;5075791;28;20029;-69
2022/01/03 05:30:34;;;;;;;34.72;6.85;;;;;;;8.95;100.00;101041.19;5075380;28;20403;-70
2022/01/03 05:33:00;;;;;;;31.00;6.05;;;;;;;9.03;100.00;101023.75;5075552;28;20143;-69
2022/01/03 05:35:25;;;;;;;32.05;6.00;;;;;;;9.04;100.00;101017.59;5075577;28;20020;-69
2022/01/03 05:37:51;;;;;;;28.25;6.00;;;;;;;9.00;100.00;101040.41;5075489;28;20039;-69
2022/01/03 05:40:16;;;;;;;32.50;6.60;;;;;;;9.00;100.00;101015.75;5075514;28;20099;-69
2022/01/03 05:42:44;;;;;;;34.28;5.75;;;;;;;8.98;100.00;101022.78;5075524;28;20107;-69
2022/01/03 05:45:09;;;;;;;30.25;5.40;;;;;;;8.95;100.00;101022.75;5075336;28;20514;-70
2022/01/03 05:47:35;;;;;;;31.92;6.10;;;;;;;8.90;100.00;101017.41;5075179;28;20040;-70
2022/01/03 05:50:01;;;;;;;29.92;5.75;;;;;;;8.92;100.00;101014.78;5073830;28;20016;-69
2022/01/03 05:52:26;;;;;;;35.78;6.20;;;;;;;9.02;100.00;101012.28;5075579;28;20069;-69
2022/01/03 05:54:52;;;;;;;30.88;5.32;;;;;;;9.00;100.00;101018.41;5075103;28;20024;-69
2022/01/03 05:57:18;;;;;;;29.80;5.72;;;;;;;8.99;100.00;101012.25;5073895;28;20036;-70
2022/01/03 05:59:43;;;;;;;30.95;6.25;;;;;;;8.93;100.00;101000.72;5075093;28;20031;-68
2022/01/03 06:02:08;;;;;;;32.35;5.78;;;;;;;8.85;100.00;101011.16;5074964;28;20020;-69
2022/01/03 06:07:19;;;;;;;30.20;5.57;;;;;;;8.79;100.00;101005.81;5075068;28;20028;-70
2022/01/03 06:09:44;;;;;;;28.90;5.90;;;;;;;8.82;100.00;101011.13;5075231;28;20028;-69
2022/01/03 06:12:09;;;;;;;27.45;5.00;;;;;;;8.86;100.00;101005.03;5074764;28;20158;-69
2022/01/03 06:14:37;;;;;;;32.30;5.68;;;;;;;8.92;100.00;101005.13;5074527;28;20456;-71
2022/01/03 06:17:03;;;;;;;30.52;4.97;;;;;;;8.87;100.00;101001.56;5074777;28;20121;-71
2022/01/03 06:19:29;;;;;;;29.45;5.30;;;;;;;8.79;100.00;101000.56;5074634;28;20032;-68
2022/01/03 06:21:56;;;;;;;29.05;5.18;;;;;;;8.77;100.00;101002.28;5074744;28;20079;-69
2022/01/03 06:24:27;;;;;;;29.40;5.75;;;;;;;8.72;100.00;100992.56;5074674;28;20383;-72
2022/01/03 06:26:53;;;;;;;32.65;5.40;;;;;;;8.64;100.00;100998.59;5070720;28;20023;-71
2022/01/03 06:29:19;;;;;;;28.63;4.97;;;;;;;8.62;100.00;101011.75;5072621;28;20028;-69
2022/01/03 06:31:45;;;;;;;28.63;5.18;;;;;;;8.62;100.00;100998.56;5073242;28;20391;-69
2022/01/03 06:34:11;;;;;;;29.55;5.10;;;;;;;8.62;100.00;100997.66;5073268;28;20048;-69
2022/01/03 06:36:37;;;;;;;28.08;4.65;;;;;;;8.56;100.00;100993.19;5072982;28;20533;-71
2022/01/03 06:39:04;;;;;;;29.13;5.03;;;;;;;8.60;100.00;101002.91;5072366;28;20528;-70
2022/01/03 06:41:30;;;;;;;27.15;4.55;;;;;;;8.67;100.00;100996.88;5071435;28;20534;-72
2022/01/03 06:43:56;;;;;;;29.88;4.95;;;;;;;8.59;100.00;101006.44;5072944;28;20107;-71
2022/01/03 06:46:22;;;;;;;31.20;5.40;;;;;;;8.29;100.00;101006.78;5072409;28;20078;-70
2022/01/03 06:48:49;;;;;;;29.52;5.25;;;;;;;8.14;100.00;100996.88;5071781;28;20020;-71
2022/01/03 06:51:14;;;;;;;30.05;5.70;;;;;;;8.03;100.00;101002.84;5072410;28;20082;-70
2022/01/03 06:53:40;;;;;;;26.80;5.28;;;;;;;8.05;100.00;100992.34;5072746;28;20036;-72
2022/01/03 06:56:06;;;;;;;31.27;5.47;;;;;;;8.01;100.00;101001.06;5070500;28;20074;-70
2022/01/03 06:58:32;;;;;;;27.90;5.35;;;;;;;7.99;100.00;101002.78;5072597;28;20033;-69
2022/01/03 07:00:58;;;;;;;31.00;5.75;;;;;;;8.02;100.00;101002.81;5071099;28;20029;-71
2022/01/03 07:03:23;;;;;;;28.67;5.38;;;;;;;8.00;100.00;100994.03;5071659;28;20100;-71
2022/01/03 07:05:49;;;;;;;26.10;5.15;;;;;;;7.99;100.00;101002.78;5072671;28;20036;-70
2022/01/03 07:08:14;;;;;;;26.58;5.05;;;;;;;8.05;100.00;100997.59;5072529;28;20030;-70
2022/01/03 07:10:39;;;;;;;30.02;5.50;;;;;;;8.05;100.00;100991.47;5071109;28;20047;-70
2022/01/03 07:13:05;;;;;;;27.35;5.32;;;;;;;8.06;100.00;100988.84;5072146;28;20025;-70
2022/01/03 07:21:03;;;;;;;26.80;4.97;;;;;;;8.18;100.00;100986.44;5016189;28;20063;-71
2022/01/03 07:23:28;;;;;;;28.40;5.47;;;;;;;8.17;100.00;100989.94;5029911;28;20484;-69
2022/01/03 07:25:53;;;;;;;32.75;5.38;;;;;;;8.15;100.00;100988.13;5029816;28;20041;-71
2022/01/03 07:28:19;;;;;;;29.35;5.35;;;;;;;8.15;100.00;100985.50;5029653;28;20029;-70
2022/01/03 07:30:45;;;;;;;33.75;5.47;;;;;;;8.08;100.00;101002.03;5028817;28;20025;-72
2022/01/03 07:33:11;;;;;;;26.88;5.03;;;;;;;8.07;100.00;100990.63;5028921;28;20057;-70
2022/01/03 07:35:36;;;;;;;26.77;5.25;;;;;;;8.07;100.00;100990.63;5029560;28;20118;-70
2022/01/03 07:38:03;;;;;;;26.83;5.18;;;;;;;8.08;100.00;100995.06;5029324;28;20131;-70
2022/01/03 07:40:29;;;;;;;29.55;5.18;;;;;;;8.18;100.00;100990.81;5029752;28;20477;-70
2022/01/03 07:42:55;;;;;;;26.00;4.97;;;;;;;8.17;100.00;100997.81;5029254;28;20072;-70
2022/01/03 07:45:20;;;;;;;25.42;4.90;;;;;;;8.21;100.00;100988.22;5028902;28;20362;-70
2022/01/03 07:47:46;;;;;;;28.23;5.30;;;;;;;8.29;100.00;100989.22;5029628;28;20030;-71
2022/01/03 07:50:12;;;;;;;29.15;5.20;;;;;;;8.31;100.00;100992.75;5029343;28;20090;-70
2022/01/03 07:52:38;;;;;;;28.30;5.10;;;;;;;8.36;100.00;100999.00;5028755;28;20036;-70
2022/01/03 07:55:06;;;;;;;26.17;5.10;;;;;;;8.43;100.00;100994.75;5046444;28;20119;-69
2022/01/03 07:57:31;;;;;;;27.25;5.38;;;;;;;8.48;100.00;101015.91;5070508;28;20033;-69
2022/01/03 07:59:57;;;;;;;26.10;5.32;;;;;;;8.55;100.00;101017.78;5069341;28;20024;-69
2022/01/03 08:02:23;;;;;;;27.60;5.38;;;;;;;8.54;100.00;101022.16;5070850;28;20028;-71
2022/01/03 08:04:48;;;;;;;29.58;5.65;;;;;;;8.52;100.00;101015.09;5071075;28;20020;-71
2022/01/03 08:07:14;;;;;;;24.40;5.22;;;;;;;8.54;100.00;100998.44;5070779;28;20028;-72
2022/01/03 08:09:39;;;;;;;30.88;5.68;;;;;;;8.63;100.00;101008.22;5071047;28;20051;-70
2022/01/03 08:12:05;;;;;;;28.92;5.57;;;;;;;8.61;100.00;101009.97;5069929;28;20111;-71
2022/01/03 08:14:31;;;;;;;29.27;5.90;;;;;;;8.60;100.00;101009.94;5070316;28;20115;-70
2022/01/03 08:16:57;;;;;;;26.92;5.03;;;;;;;8.62;100.00;101011.75;5070516;28;20124;-71
2022/01/03 08:19:22;;;;;;;29.73;6.05;;;;;;;8.58;100.00;101011.66;5070013;28;20016;-71
2022/01/03 08:21:48;;;;;;;29.27;6.15;;;;;;;8.53;100.00;101007.22;5071004;28;20031;-71
2022/01/03 08:24:13;;;;;;;28.05;5.80;;;;;;;8.58;100.00;101002.00;5069640;28;20075;-70
2022/01/03 08:26:38;;;;;;;27.55;5.78;;;;;;;8.58;100.00;101003.75;5070906;28;20028;-70
2022/01/03 08:29:05;;;;;;;29.58;5.78;;;;;;;8.63;100.00;100989.78;5070666;28;20048;-70
2022/01/03 08:31:31;;;;;;;26.23;5.53;;;;;;;8.69;100.00;101013.59;5069104;28;20383;-71
2022/01/03 08:33:56;;;;;;;28.83;5.30;;;;;;;8.72;100.00;100991.66;5070988;28;20040;-71
2022/01/03 08:36:22;;;;;;;28.40;5.35;;;;;;;8.77;100.00;100990.00;5070691;28;20040;-69
2022/01/03 08:38:47;;;;;;;26.80;4.82;;;;;;;8.72;100.00;101000.47;5070365;28;20073;-70
2022/01/03 08:41:12;;;;;;;25.75;5.18;;;;;;;8.79;100.00;100992.63;5069287;28;20024;-71
2022/01/03 08:43:38;;;;;;;27.95;4.97;;;;;;;8.83;100.00;100994.47;5071020;28;20117;-71
2022/01/03 08:46:03;;;;;;;28.17;5.18;;;;;;;8.75;100.00;100977.66;5070920;28;20028;-70
2022/01/03 08:48:29;;;;;;;30.23;5.38;;;;;;;8.79;100.00;100987.38;5070951;28;20111;-70
2022/01/03 08:50:55;;;;;;;26.60;5.32;;;;;;;8.77;100.00;100995.25;5069922;28;20024;-70
2022/01/03 08:53:25;;;;;;;27.55;5.30;;;;;;;8.83;100.00;100999.72;5070349;28;20052;-70
2022/01/03 08:55:51;;;;;;;25.67;5.20;;;;;;;8.80;100.00;101011.13;5071829;28;20024;-70
2022/01/03 08:58:18;;;;;;;30.40;5.63;;;;;;;8.80;100.00;101019.03;5071727;28;20016;-70
2022/01/03 09:00:44;;;;;;;29.85;5.90;;;;;;;8.81;100.00;101010.25;5071635;28;20100;-70
2022/01/03 09:03:09;;;;;;;29.60;5.75;;;;;;;8.83;100.00;101026.97;5072264;28;20112;-68
2022/01/03 09:05:35;;;;;;;29.15;5.53;;;;;;;8.87;100.00;101020.00;5071725;28;20043;-69
2022/01/03 09:08:01;;;;;;;27.45;5.15;;;;;;;8.97;100.00;101019.28;5071783;28;20032;-70
2022/01/03 09:10:26;;;;;;;25.25;5.18;;;;;;;8.99;100.00;101017.53;5071911;28;20020;-69
2022/01/03 09:12:52;;;;;;;28.05;5.07;;;;;;;9.11;100.00;101018.56;5071924;28;20037;-72
2022/01/03 09:15:17;;;;;;;29.23;5.18;;;;;;;9.24;100.00;101018.72;5072084;28;20020;-73
2022/01/03 09:17:43;;;;;;;28.63;5.38;;;;;;;9.34;100.00;101009.19;5072142;28;20104;-76
2022/01/03 09:20:08;;;;;;;27.65;5.15;;;;;;;9.43;100.00;101017.19;5072018;28;20383;-75
2022/01/03 09:22:39;;;;;;;29.00;4.97;;;;;;;9.39;100.00;101012.78;5072052;28;20464;-72
2022/01/03 09:30:15;;;;;;;30.77;5.88;;;;;;;9.31;100.00;101003.88;5073335;28;20075;-74
2022/01/03 09:32:41;;;;;;;27.20;5.32;;;;;;;9.33;100.00;101014.44;5075399;28;20076;-72
2022/01/03 09:35:07;;;;;;;29.58;5.53;;;;;;;9.33;100.00;100986.28;5075594;28;20475;-76
2022/01/03 09:37:36;;;;;;;28.15;5.13;;;;;;;9.29;100.00;100979.22;5075299;28;20123;-76
2022/01/03 09:40:04;;;;;;;26.13;5.32;;;;;;;9.34;100.00;100979.28;5075557;28;20032;-74
2022/01/03 09:42:31;;;;;;;28.50;5.03;;;;;;;9.42;100.00;100980.22;5075366;28;20082;-76
2022/01/03 09:44:59;;;;;;;28.98;5.40;;;;;;;9.33;100.00;100970.47;5075250;28;20024;-76
2022/01/03 09:47:27;;;;;;;29.30;5.35;;;;;;;9.37;100.00;100985.47;5075069;28;20102;-72
2022/01/03 09:49:54;;;;;;;29.50;5.90;;;;;;;9.41;100.00;100979.34;5075291;28;20033;-73
2022/01/03 09:52:23;;;;;;;27.45;5.25;;;;;;;9.51;100.00;100997.91;5075360;28;20063;-75
2022/01/03 09:54:50;;;;;;;26.58;4.72;;;;;;;9.54;100.00;100990.06;5075111;28;20024;-77
2022/01/03 09:57:19;;;;;;;26.13;4.70;;;;;;;9.51;100.00;100990.00;5074898;28;20024;-69
2022/01/03 09:59:45;;;;;;;29.40;5.60;;;;;;;9.53;100.00;100972.44;5075352;28;20063;-77
2022/01/03 10:02:13;;;;;;;29.17;5.20;;;;;;;9.46;100.00;100989.09;5074889;28;20445;-70
2022/01/03 10:04:39;;;;;;;27.90;5.00;;;;;;;9.50;100.00;100981.22;5074795;28;20386;-72
2022/01/03 10:07:08;;;;;;;28.33;5.43;;;;;;;9.54;100.00;100984.78;5075334;28;20111;-70
2022/01/03 10:09:34;;;;;;;29.55;5.70;;;;;;;9.53;100.00;100983.88;5074788;28;20029;-75
2022/01/03 10:11:59;;;;;;;29.58;5.53;;;;;;;9.51;100.00;100974.16;5074628;28;20033;-71
2022/01/03 10:14:25;;;;;;;30.52;5.55;;;;;;;9.55;100.00;100981.25;5075008;28;20079;-73
2022/01/03 10:16:50;;;;;;;31.02;5.40;;;;;;;9.60;100.00;100979.56;5074551;28;20028;-70
2022/01/03 10:19:16;;;;;;;29.98;5.82;;;;;;;9.72;100.00;100984.97;5074587;28;20016;-69
2022/01/03 10:21:48;;;;;;;31.42;5.95;;;;;;;9.77;100.00;100983.25;5074837;28;20031;-72
2022/01/03 10:24:16;;;;;;;31.20;5.53;;;;;;;9.72;100.00;100990.25;5075071;28;20020;-73
2022/01/03 10:26:50;;;;;;;27.70;5.50;;;;;;;9.70;100.00;100988.47;5072600;28;20498;-73
2022/01/03 10:29:19;;;;;;;28.55;5.80;;;;;;;9.74;100.00;100983.25;5074489;28;20104;-73
2022/01/03 10:31:47;;;;;;;29.52;5.82;;;;;;;9.71;100.00;100977.94;5073733;28;20028;-75
2022/01/03 10:34:16;;;;;;;28.58;5.55;;;;;;;9.75;100.00;100976.19;5073931;28;20037;-72
2022/01/03 10:36:42;;;;;;;27.77;5.50;;;;;;;9.66;100.00;100965.56;5073141;28;20068;-74
2022/01/03 10:39:13;;;;;;;26.83;5.20;;;;;;;9.59;100.00;100968.09;5073267;28;20029;-69
2022/01/03 10:41:38;;;;;;;27.67;5.45;;;;;;;9.67;100.00;100962.94;5069127;28;20495;-69
2022/01/03 10:44:04;;;;;;;25.75;5.40;;;;;;;9.74;100.00;100956.84;5074433;28;20024;-69
2022/01/03 10:46:34;;;;;;;28.42;5.22;;;;;;;9.77;100.00;100951.59;5074337;28;20043;-69
2022/01/03 10:49:08;;;;;;;27.90;5.70;;;;;;;9.85;100.00;100948.13;5073992;28;20063;-70
2022/01/03 10:51:34;;;;;;;27.65;6.03;;;;;;;9.87;100.00;100949.00;5069846;28;20028;-69
2022/01/03 10:53:59;;;;;;;27.52;5.43;;;;;;;9.84;100.00;100941.06;5074054;28;20027;-69
2022/01/03 10:56:35;;;;;;;24.88;5.40;;;;;;;9.89;100.00;100945.53;5073669;28;20036;-71
2022/01/03 10:59:04;;;;;;;25.27;5.40;;;;;;;9.98;100.00;100917.44;5074048;28;20036;-71
2022/01/03 11:01:31;;;;;;;27.75;5.40;;;;;;;9.98;100.00;100915.66;5073883;28;20074;-70
2022/01/03 11:04:00;;;;;;;25.65;5.03;;;;;;;9.99;100.00;100920.09;5073990;28;20090;-70
2022/01/03 11:11:41;;;;;;;26.40;5.18;;;;;;;10.03;100.00;100905.13;5070478;28;20111;-69
2022/01/03 11:14:09;;;;;;;27.63;4.88;;;;;;;10.34;100.00;100906.28;5073665;28;20090;-69
2022/01/03 11:16:39;;;;;;;26.52;5.07;;;;;;;10.56;100.00;100902.00;5069292;28;20103;-69
2022/01/03 11:19:04;;;;;;;26.55;5.07;;;;;;;10.60;100.00;100900.25;5073339;28;20086;-71
2022/01/03 11:21:31;;;;;;;25.95;5.10;;;;;;;10.57;100.00;100894.94;5073465;28;20021;-71
2022/01/03 11:24:04;;;;;;;26.58;5.10;;;;;;;10.37;100.00;100916.88;5073621;28;20044;-75
2022/01/03 11:26:33;;;;;;;26.50;5.05;;;;;;;10.27;100.00;100889.47;5073226;28;20392;-71
2022/01/03 11:29:00;;;;;;;30.02;5.50;;;;;;;10.33;100.00;100899.19;5073204;28;20112;-76
2022/01/03 11:31:28;;;;;;;26.50;5.32;;;;;;;10.50;100.00;100907.25;5073360;28;20391;-70
2022/01/03 11:33:53;;;;;;;24.48;5.10;;;;;;;10.35;100.00;100894.81;5072864;28;20060;-73
2022/01/03 11:36:22;;;;;;;25.05;5.15;;;;;;;10.31;100.00;100890.38;5073088;28;20454;-76